Terminal Aerodrome Forecast
Issued by NWS

Home | Current Version | Previous Version | Graphics & Text | Print | Product List | Glossary On
Versions: 1 2 3 4 5 6 7 8 9 10 11 12 13 14
000
FTUS43 KICT 220524
TAFCNU
TAF
KCNU 220524Z 2206/2306 VRB05KT P6SM OVC120
     FM221100 02005KT P6SM OVC250
     FM221800 02005KT P6SM BKN040
     FM230200 08005KT P6SM SCT040 SCT200=

USA.gov is the U.S. government's official web portal to all federal, state and local government web resources and services.